sensor_id;sensor_type;location;lat;lon;timestamp;pressure;altitude;pressure_sealevel;temperature;humidity
45872;BME280;32333;55.844;-3.210;2023-06-22T00:01:48;99687.76;;;14.70;100.00
45872;BME280;32333;55.844;-3.210;2023-06-22T00:04:16;99689.59;;;14.57;100.00
45872;BME280;32333;55.844;-3.210;2023-06-22T00:06:43;99688.17;;;14.11;100.00
45872;BME280;32333;55.844;-3.210;2023-06-22T00:09:11;99693.98;;;15.20;100.00
45872;BME280;32333;55.844;-3.210;2023-06-22T00:11:38;99701.78;;;14.27;100.00
45872;BME280;32333;55.844;-3.210;2023-06-22T00:14:36;99698.05;;;14.22;100.00
45872;BME280;32333;55.844;-3.210;2023-06-22T00:17:03;99695.89;;;14.17;100.00
45872;BME280;32333;55.844;-3.210;2023-06-22T00:19:31;99697.70;;;14.27;100.00
45872;BME280;32333;55.844;-3.210;2023-06-22T00:21:59;99704.78;;;14.56;100.00
45872;BME280;32333;55.844;-3.210;2023-06-22T00:24:27;99708.64;;;14.84;100.00
45872;BME280;32333;55.844;-3.210;2023-06-22T00:26:54;99713.95;;;15.22;100.00
45872;BME280;32333;55.844;-3.210;2023-06-22T00:29:22;99714.01;;;15.31;100.00
45872;BME280;32333;55.844;-3.210;2023-06-22T00:31:49;99718.46;;;14.91;100.00
45872;BME280;32333;55.844;-3.210;2023-06-22T00:34:17;99725.50;;;15.55;100.00
45872;BME280;32333;55.844;-3.210;2023-06-22T00:36:44;99725.78;;;15.33;100.00
45872;BME280;32333;55.844;-3.210;2023-06-22T00:39:12;99727.21;;;14.95;100.00
45872;BME280;32333;55.844;-3.210;2023-06-22T00:41:40;99732.05;;;14.92;100.00
45872;BME280;32333;55.844;-3.210;2023-06-22T00:44:35;99729.60;;;15.24;100.00
45872;BME280;32333;55.844;-3.210;2023-06-22T00:47:03;99736.56;;;13.34;100.00
45872;BME280;32333;55.844;-3.210;2023-06-22T00:49:30;99740.07;;;13.51;100.00
45872;BME280;32333;55.844;-3.210;2023-06-22T00:51:59;99736.58;;;15.23;100.00
45872;BME280;32333;55.844;-3.210;2023-06-22T00:54:27;99741.62;;;14.11;100.00
45872;BME280;32333;55.844;-3.210;2023-06-22T00:56:55;99741.59;;;14.85;100.00
45872;BME280;32333;55.844;-3.210;2023-06-22T00:59:22;99739.68;;;15.39;100.00
45872;BME280;32333;55.844;-3.210;2023-06-22T01:01:50;99746.94;;;14.59;100.00
45872;BME280;32333;55.844;-3.210;2023-06-22T01:04:18;99742.22;;;15.56;100.00
45872;BME280;32333;55.844;-3.210;2023-06-22T01:06:50;99747.63;;;14.94;100.00
45872;BME280;32333;55.844;-3.210;2023-06-22T01:09:25;99748.55;;;14.57;100.00
45872;BME280;32333;55.844;-3.210;2023-06-22T01:11:57;99747.13;;;14.98;100.00
45872;BME280;32333;55.844;-3.210;2023-06-22T01:14:40;99751.89;;;15.65;100.00
45872;BME280;32333;55.844;-3.210;2023-06-22T01:17:09;99753.30;;;14.20;100.00
45872;BME280;32333;55.844;-3.210;2023-06-22T01:19:45;99759.99;;;13.92;100.00
45872;BME280;32333;55.844;-3.210;2023-06-22T01:22:16;99764.09;;;13.88;100.00
45872;BME280;32333;55.844;-3.210;2023-06-22T01:24:52;99764.67;;;13.24;100.00
45872;BME280;32333;55.844;-3.210;2023-06-22T01:27:32;99765.60;;;14.22;100.00
45872;BME280;32333;55.844;-3.210;2023-06-22T01:30:05;99767.75;;;14.33;100.00
45872;BME280;32333;55.844;-3.210;2023-06-22T01:32:36;99771.88;;;13.79;100.00
45872;BME280;32333;55.844;-3.210;2023-06-22T01:35:06;99773.25;;;13.06;100.00
45872;BME280;32333;55.844;-3.210;2023-06-22T01:37:36;99772.92;;;13.83;100.00
45872;BME280;32333;55.844;-3.210;2023-06-22T01:40:07;99774.27;;;13.09;100.00
45872;BME280;32333;55.844;-3.210;2023-06-22T01:44:36;99779.34;;;12.86;100.00
45872;BME280;32333;55.844;-3.210;2023-06-22T01:47:05;99783.48;;;13.16;100.00
45872;BME280;32333;55.844;-3.210;2023-06-22T01:49:34;99784.65;;;12.17;100.00
45872;BME280;32333;55.844;-3.210;2023-06-22T01:52:03;99786.59;;;12.28;100.00
45872;BME280;32333;55.844;-3.210;2023-06-22T01:54:31;99788.37;;;12.84;100.00
45872;BME280;32333;55.844;-3.210;2023-06-22T01:56:59;99784.41;;;13.69;100.00
45872;BME280;32333;55.844;-3.210;2023-06-22T01:59:32;99789.05;;;13.16;100.00
45872;BME280;32333;55.844;-3.210;2023-06-22T02:02:04;99790.70;;;14.08;100.00
45872;BME280;32333;55.844;-3.210;2023-06-22T02:04:36;99790.02;;;13.52;100.00
45872;BME280;32333;55.844;-3.210;2023-06-22T02:07:12;99790.11;;;13.33;100.00
45872;BME280;32333;55.844;-3.210;2023-06-22T02:09:43;99792.23;;;14.75;100.00
45872;BME280;32333;55.844;-3.210;2023-06-22T02:14:36;99803.74;;;13.05;100.00
45872;BME280;32333;55.844;-3.210;2023-06-22T02:17:05;99803.42;;;14.40;100.00
45872;BME280;32333;55.844;-3.210;2023-06-22T02:19:36;99802.01;;;13.89;100.00
45872;BME280;32333;55.844;-3.210;2023-06-22T02:22:04;99802.36;;;14.23;100.00
45872;BME280;32333;55.844;-3.210;2023-06-22T02:24:32;99803.14;;;14.26;100.00
45872;BME280;32333;55.844;-3.210;2023-06-22T02:27:01;99807.80;;;11.74;100.00
45872;BME280;32333;55.844;-3.210;2023-06-22T02:29:29;99802.50;;;13.67;100.00
45872;BME280;32333;55.844;-3.210;2023-06-22T02:31:57;99809.23;;;12.59;100.00
45872;BME280;32333;55.844;-3.210;2023-06-22T02:34:24;99808.95;;;11.60;100.00
45872;BME280;32333;55.844;-3.210;2023-06-22T02:36:52;99803.93;;;13.26;100.00
45872;BME280;32333;55.844;-3.210;2023-06-22T02:39:21;99808.90;;;12.71;100.00
45872;BME280;32333;55.844;-3.210;2023-06-22T02:41:49;99806.53;;;11.97;100.00
45872;BME280;32333;55.844;-3.210;2023-06-22T02:44:36;99806.03;;;13.56;100.00
45872;BME280;32333;55.844;-3.210;2023-06-22T02:47:03;99812.33;;;12.61;100.00
45872;BME280;32333;55.844;-3.210;2023-06-22T02:49:31;99816.23;;;12.61;100.00
45872;BME280;32333;55.844;-3.210;2023-06-22T02:51:59;99812.76;;;13.66;100.00
45872;BME280;32333;55.844;-3.210;2023-06-22T02:54:27;99818.22;;;11.61;100.00
45872;BME280;32333;55.844;-3.210;2023-06-22T02:56:54;99814.12;;;12.59;100.00
45872;BME280;32333;55.844;-3.210;2023-06-22T02:59:22;99819.98;;;12.46;100.00
45872;BME280;32333;55.844;-3.210;2023-06-22T03:01:50;99825.57;;;12.76;100.00
45872;BME280;32333;55.844;-3.210;2023-06-22T03:04:17;99823.88;;;10.68;100.00
45872;BME280;32333;55.844;-3.210;2023-06-22T03:06:46;99827.72;;;11.84;100.00
45872;BME280;32333;55.844;-3.210;2023-06-22T03:09:13;99825.76;;;13.54;100.00
45872;BME280;32333;55.844;-3.210;2023-06-22T03:11:40;99831.29;;;13.09;100.00
45872;BME280;32333;55.844;-3.210;2023-06-22T03:14:35;99827.10;;;13.47;100.00
45872;BME280;32333;55.844;-3.210;2023-06-22T03:17:04;99833.13;;;12.52;100.00
45872;BME280;32333;55.844;-3.210;2023-06-22T03:19:32;99832.76;;;13.03;100.00
45872;BME280;32333;55.844;-3.210;2023-06-22T03:21:59;99828.87;;;13.44;100.00
45872;BME280;32333;55.844;-3.210;2023-06-22T03:24:27;99830.00;;;13.95;100.00
45872;BME280;32333;55.844;-3.210;2023-06-22T03:26:55;99835.86;;;13.07;100.00
45872;BME280;32333;55.844;-3.210;2023-06-22T03:29:23;99838.32;;;13.26;100.00
45872;BME280;32333;55.844;-3.210;2023-06-22T03:31:50;99839.75;;;12.82;100.00
45872;BME280;32333;55.844;-3.210;2023-06-22T03:34:17;99836.23;;;11.30;100.00
45872;BME280;32333;55.844;-3.210;2023-06-22T03:36:46;99834.91;;;12.45;100.00
45872;BME280;32333;55.844;-3.210;2023-06-22T03:39:13;99836.63;;;12.70;100.00
45872;BME280;32333;55.844;-3.210;2023-06-22T03:41:41;99838.81;;;12.95;100.00
45872;BME280;32333;55.844;-3.210;2023-06-22T03:44:36;99839.99;;;12.44;100.00
45872;BME280;32333;55.844;-3.210;2023-06-22T03:47:04;99845.06;;;9.36;100.00
45872;BME280;32333;55.844;-3.210;2023-06-22T03:49:31;99845.12;;;11.10;100.00
45872;BME280;32333;55.844;-3.210;2023-06-22T03:52:00;99850.05;;;11.78;100.00
45872;BME280;32333;55.844;-3.210;2023-06-22T03:54:28;99852.34;;;12.52;100.00
45872;BME280;32333;55.844;-3.210;2023-06-22T03:56:57;99854.56;;;12.31;100.00
45872;BME280;32333;55.844;-3.210;2023-06-22T03:59:25;99858.74;;;12.01;100.00
45872;BME280;32333;55.844;-3.210;2023-06-22T04:01:52;99863.77;;;11.24;100.00
45872;BME280;32333;55.844;-3.210;2023-06-22T04:04:20;99866.55;;;10.70;100.00
45872;BME280;32333;55.844;-3.210;2023-06-22T04:06:47;99863.09;;;12.12;100.00
45872;BME280;32333;55.844;-3.210;2023-06-22T04:09:14;99870.73;;;9.78;100.00
45872;BME280;32333;55.844;-3.210;2023-06-22T04:11:42;99870.50;;;11.72;100.00
45872;BME280;32333;55.844;-3.210;2023-06-22T04:14:35;99872.08;;;12.55;100.00
45872;BME280;32333;55.844;-3.210;2023-06-22T04:17:03;99872.88;;;12.62;100.00
45872;BME280;32333;55.844;-3.210;2023-06-22T04:19:31;99871.98;;;12.30;100.00
45872;BME280;32333;55.844;-3.210;2023-06-22T04:21:59;99873.32;;;11.14;100.00
45872;BME280;32333;55.844;-3.210;2023-06-22T04:24:27;99872.29;;;10.64;100.00
45872;BME280;32333;55.844;-3.210;2023-06-22T04:26:54;99869.20;;;11.76;100.00
45872;BME280;32333;55.844;-3.210;2023-06-22T04:29:22;99874.53;;;13.30;100.00
45872;BME280;32333;55.844;-3.210;2023-06-22T04:31:49;99877.37;;;13.22;100.00
45872;BME280;32333;55.844;-3.210;2023-06-22T04:34:17;99876.82;;;13.09;100.00
45872;BME280;32333;55.844;-3.210;2023-06-22T04:36:44;99876.56;;;13.00;100.00
45872;BME280;32333;55.844;-3.210;2023-06-22T04:39:12;99871.85;;;13.15;100.00
45872;BME280;32333;55.844;-3.210;2023-06-22T04:41:40;99873.75;;;13.51;100.00
45872;BME280;32333;55.844;-3.210;2023-06-22T04:44:36;99880.25;;;13.77;100.00
45872;BME280;32333;55.844;-3.210;2023-06-22T04:47:03;99877.62;;;14.16;100.00
45872;BME280;32333;55.844;-3.210;2023-06-22T04:49:31;99878.11;;;13.01;100.00
45872;BME280;32333;55.844;-3.210;2023-06-22T04:51:59;99879.74;;;15.46;100.00
45872;BME280;32333;55.844;-3.210;2023-06-22T04:54:27;99880.55;;;15.05;100.00
45872;BME280;32333;55.844;-3.210;2023-06-22T04:56:55;99884.32;;;16.05;100.00
45872;BME280;32333;55.844;-3.210;2023-06-22T04:59:23;99885.14;;;15.83;100.00
45872;BME280;32333;55.844;-3.210;2023-06-22T05:01:50;99882.28;;;16.00;100.00
45872;BME280;32333;55.844;-3.210;2023-06-22T05:04:18;99884.80;;;17.02;100.00
45872;BME280;32333;55.844;-3.210;2023-06-22T05:06:46;99883.38;;;16.14;100.00
45872;BME280;32333;55.844;-3.210;2023-06-22T05:09:13;99886.50;;;17.31;100.00
45872;BME280;32333;55.844;-3.210;2023-06-22T05:11:40;99887.54;;;17.06;100.00
45872;BME280;32333;55.844;-3.210;2023-06-22T05:14:35;99889.12;;;17.37;100.00
45872;BME280;32333;55.844;-3.210;2023-06-22T05:17:02;99889.90;;;17.81;100.00
45872;BME280;32333;55.844;-3.210;2023-06-22T05:19:30;99889.72;;;16.79;100.00
45872;BME280;32333;55.844;-3.210;2023-06-22T05:21:57;99884.81;;;18.05;100.00
45872;BME280;32333;55.844;-3.210;2023-06-22T05:24:25;99882.77;;;19.06;100.00
45872;BME280;32333;55.844;-3.210;2023-06-22T05:26:52;99886.35;;;18.72;100.00
45872;BME280;32333;55.844;-3.210;2023-06-22T05:29:20;99894.05;;;18.92;98.81
45872;BME280;32333;55.844;-3.210;2023-06-22T05:31:47;99898.26;;;18.24;100.00
45872;BME280;32333;55.844;-3.210;2023-06-22T05:34:14;99900.82;;;17.90;100.00
45872;BME280;32333;55.844;-3.210;2023-06-22T05:36:43;99900.41;;;18.16;100.00
45872;BME280;32333;55.844;-3.210;2023-06-22T05:39:12;99899.38;;;19.04;100.00
45872;BME280;32333;55.844;-3.210;2023-06-22T05:41:40;99902.05;;;16.08;100.00
45872;BME280;32333;55.844;-3.210;2023-06-22T05:44:35;99899.26;;;16.27;100.00
45872;BME280;32333;55.844;-3.210;2023-06-22T05:47:03;99905.74;;;16.98;100.00
45872;BME280;32333;55.844;-3.210;2023-06-22T05:49:30;99905.70;;;15.62;100.00
45872;BME280;32333;55.844;-3.210;2023-06-22T05:51:59;99906.90;;;14.66;100.00
45872;BME280;32333;55.844;-3.210;2023-06-22T05:54:27;99903.79;;;15.14;100.00
45872;BME280;32333;55.844;-3.210;2023-06-22T05:56:55;99906.34;;;14.79;100.00
45872;BME280;32333;55.844;-3.210;2023-06-22T05:59:22;99911.59;;;14.41;100.00
45872;BME280;32333;55.844;-3.210;2023-06-22T06:01:50;99912.67;;;15.37;100.00
45872;BME280;32333;55.844;-3.210;2023-06-22T06:04:18;99912.20;;;14.98;100.00
45872;BME280;32333;55.844;-3.210;2023-06-22T06:06:45;99914.09;;;14.70;100.00
45872;BME280;32333;55.844;-3.210;2023-06-22T06:09:13;99912.37;;;14.27;100.00
45872;BME280;32333;55.844;-3.210;2023-06-22T06:11:41;99913.83;;;14.55;100.00
45872;BME280;32333;55.844;-3.210;2023-06-22T06:14:35;99914.42;;;14.67;100.00
45872;BME280;32333;55.844;-3.210;2023-06-22T06:17:03;99918.41;;;14.41;100.00
45872;BME280;32333;55.844;-3.210;2023-06-22T06:19:31;99922.43;;;13.10;100.00
45872;BME280;32333;55.844;-3.210;2023-06-22T06:21:58;99920.93;;;13.28;100.00
45872;BME280;32333;55.844;-3.210;2023-06-22T06:24:26;99921.22;;;13.21;100.00
45872;BME280;32333;55.844;-3.210;2023-06-22T06:26:53;99919.99;;;12.92;100.00
45872;BME280;32333;55.844;-3.210;2023-06-22T06:29:22;99919.62;;;14.27;100.00
45872;BME280;32333;55.844;-3.210;2023-06-22T06:31:49;99922.74;;;13.83;100.00
45872;BME280;32333;55.844;-3.210;2023-06-22T06:34:16;99920.73;;;13.83;100.00
45872;BME280;32333;55.844;-3.210;2023-06-22T06:36:44;99919.87;;;14.06;100.00
45872;BME280;32333;55.844;-3.210;2023-06-22T06:39:12;99920.06;;;14.23;100.00
45872;BME280;32333;55.844;-3.210;2023-06-22T06:41:39;99922.92;;;12.95;100.00
45872;BME280;32333;55.844;-3.210;2023-06-22T06:44:35;99925.20;;;13.85;100.00
45872;BME280;32333;55.844;-3.210;2023-06-22T06:47:03;99920.74;;;14.04;100.00
45872;BME280;32333;55.844;-3.210;2023-06-22T06:49:31;99929.82;;;13.11;100.00
45872;BME280;32333;55.844;-3.210;2023-06-22T06:51:59;99927.06;;;14.64;100.00
45872;BME280;32333;55.844;-3.210;2023-06-22T06:54:27;99925.92;;;13.87;100.00
45872;BME280;32333;55.844;-3.210;2023-06-22T06:56:54;99928.49;;;13.86;100.00
45872;BME280;32333;55.844;-3.210;2023-06-22T06:59:23;99920.09;;;14.61;100.00
45872;BME280;32333;55.844;-3.210;2023-06-22T07:01:50;99921.40;;;15.18;100.00
45872;BME280;32333;55.844;-3.210;2023-06-22T07:04:18;99920.69;;;14.81;100.00
45872;BME280;32333;55.844;-3.210;2023-06-22T07:06:46;99920.84;;;14.47;100.00
45872;BME280;32333;55.844;-3.210;2023-06-22T07:09:13;99922.27;;;14.91;100.00
45872;BME280;32333;55.844;-3.210;2023-06-22T07:11:40;99919.67;;;14.73;100.00
45872;BME280;32333;55.844;-3.210;2023-06-22T07:14:35;99918.11;;;13.84;100.00
45872;BME280;32333;55.844;-3.210;2023-06-22T07:17:03;99924.83;;;14.37;100.00
45872;BME280;32333;55.844;-3.210;2023-06-22T07:19:32;99920.94;;;14.22;100.00
45872;BME280;32333;55.844;-3.210;2023-06-22T07:22:00;99918.26;;;13.89;100.00
45872;BME280;32333;55.844;-3.210;2023-06-22T07:24:27;99921.39;;;14.63;100.00
45872;BME280;32333;55.844;-3.210;2023-06-22T07:26:55;99923.86;;;14.92;100.00
45872;BME280;32333;55.844;-3.210;2023-06-22T07:29:22;99931.31;;;14.11;100.00
45872;BME280;32333;55.844;-3.210;2023-06-22T07:31:51;99928.94;;;15.75;100.00
45872;BME280;32333;55.844;-3.210;2023-06-22T07:34:20;99931.24;;;15.26;100.00
45872;BME280;32333;55.844;-3.210;2023-06-22T07:36:48;99930.28;;;15.37;100.00
45872;BME280;32333;55.844;-3.210;2023-06-22T07:39:16;99933.86;;;15.65;100.00
45872;BME280;32333;55.844;-3.210;2023-06-22T07:41:44;99936.38;;;15.84;100.00
45872;BME280;32333;55.844;-3.210;2023-06-22T07:44:36;99932.91;;;16.58;100.00
45872;BME280;32333;55.844;-3.210;2023-06-22T07:47:04;99933.53;;;16.42;100.00
45872;BME280;32333;55.844;-3.210;2023-06-22T07:49:31;99940.71;;;16.70;100.00
45872;BME280;32333;55.844;-3.210;2023-06-22T07:51:59;99942.26;;;17.25;100.00
45872;BME280;32333;55.844;-3.210;2023-06-22T07:54:27;99940.31;;;17.81;100.00
45872;BME280;32333;55.844;-3.210;2023-06-22T07:56:55;99936.90;;;16.67;100.00
45872;BME280;32333;55.844;-3.210;2023-06-22T07:59:24;99939.69;;;17.03;100.00
45872;BME280;32333;55.844;-3.210;2023-06-22T08:01:51;99936.81;;;17.79;100.00
45872;BME280;32333;55.844;-3.210;2023-06-22T08:04:20;99940.23;;;17.54;100.00
45872;BME280;32333;55.844;-3.210;2023-06-22T08:06:48;99935.12;;;17.79;100.00
45872;BME280;32333;55.844;-3.210;2023-06-22T08:09:15;99932.38;;;18.72;94.43
45872;BME280;32333;55.844;-3.210;2023-06-22T08:11:44;99928.00;;;18.73;93.69
45872;BME280;32333;55.844;-3.210;2023-06-22T08:14:37;99934.72;;;19.31;93.42
45872;BME280;32333;55.844;-3.210;2023-06-22T08:17:05;99932.00;;;18.40;93.43
45872;BME280;32333;55.844;-3.210;2023-06-22T08:19:34;99937.75;;;18.87;92.93
45872;BME280;32333;55.844;-3.210;2023-06-22T08:22:02;99935.81;;;18.32;97.70
45872;BME280;32333;55.844;-3.210;2023-06-22T08:24:29;99936.81;;;18.59;92.56
45872;BME280;32333;55.844;-3.210;2023-06-22T08:26:57;99942.36;;;20.03;88.44
45872;BME280;32333;55.844;-3.210;2023-06-22T08:29:25;99937.47;;;18.46;88.48
45872;BME280;32333;55.844;-3.210;2023-06-22T08:31:53;99938.74;;;18.61;90.31
45872;BME280;32333;55.844;-3.210;2023-06-22T08:34:21;99943.18;;;19.91;85.20
45872;BME280;32333;55.844;-3.210;2023-06-22T08:36:50;99941.23;;;19.68;87.32
45872;BME280;32333;55.844;-3.210;2023-06-22T08:39:19;99941.64;;;21.28;78.44
45872;BME280;32333;55.844;-3.210;2023-06-22T08:41:46;99938.26;;;20.08;77.50
45872;BME280;32333;55.844;-3.210;2023-06-22T08:44:35;99939.84;;;20.70;80.44
45872;BME280;32333;55.844;-3.210;2023-06-22T08:47:04;99946.06;;;20.44;78.38
45872;BME280;32333;55.844;-3.210;2023-06-22T08:49:31;99944.83;;;20.40;81.11
45872;BME280;32333;55.844;-3.210;2023-06-22T08:51:59;99947.78;;;20.00;79.73
45872;BME280;32333;55.844;-3.210;2023-06-22T08:54:29;99946.82;;;20.05;77.88
45872;BME280;32333;55.844;-3.210;2023-06-22T08:56:58;99944.52;;;21.15;72.20
45872;BME280;32333;55.844;-3.210;2023-06-22T08:59:25;99945.87;;;19.24;79.60
45872;BME280;32333;55.844;-3.210;2023-06-22T09:01:54;99946.36;;;20.21;85.64
45872;BME280;32333;55.844;-3.210;2023-06-22T09:04:22;99947.55;;;20.21;80.20
45872;BME280;32333;55.844;-3.210;2023-06-22T09:06:50;99943.27;;;20.06;78.47
45872;BME280;32333;55.844;-3.210;2023-06-22T09:09:21;99946.25;;;20.83;70.37
45872;BME280;32333;55.844;-3.210;2023-06-22T09:11:52;99951.03;;;19.67;74.63
45872;BME280;32333;55.844;-3.210;2023-06-22T09:14:35;99953.12;;;19.99;76.93
45872;BME280;32333;55.844;-3.210;2023-06-22T09:17:04;99949.86;;;20.40;72.69
45872;BME280;32333;55.844;-3.210;2023-06-22T09:19:31;99953.02;;;19.94;77.51
45872;BME280;32333;55.844;-3.210;2023-06-22T09:21:58;99950.53;;;19.22;76.13
45872;BME280;32333;55.844;-3.210;2023-06-22T09:24:25;99954.80;;;18.86;74.20
45872;BME280;32333;55.844;-3.210;2023-06-22T09:26:52;99949.93;;;18.88;79.71
45872;BME280;32333;55.844;-3.210;2023-06-22T09:29:21;99948.50;;;20.64;71.36
45872;BME280;32333;55.844;-3.210;2023-06-22T09:31:48;99948.44;;;21.39;67.74
45872;BME280;32333;55.844;-3.210;2023-06-22T09:34:15;99948.95;;;21.42;69.87
45872;BME280;32333;55.844;-3.210;2023-06-22T09:36:44;99955.44;;;21.16;69.11
45872;BME280;32333;55.844;-3.210;2023-06-22T09:39:11;99961.00;;;19.79;68.76
45872;BME280;32333;55.844;-3.210;2023-06-22T09:41:39;99962.87;;;20.71;67.39
45872;BME280;32333;55.844;-3.210;2023-06-22T09:44:35;99966.05;;;22.07;65.38
45872;BME280;32333;55.844;-3.210;2023-06-22T09:47:03;99969.26;;;20.07;71.27
45872;BME280;32333;55.844;-3.210;2023-06-22T09:49:31;99967.89;;;22.27;65.96
45872;BME280;32333;55.844;-3.210;2023-06-22T09:51:59;99967.61;;;21.40;65.31
45872;BME280;32333;55.844;-3.210;2023-06-22T09:54:27;99962.86;;;22.13;62.29
45872;BME280;32333;55.844;-3.210;2023-06-22T09:56:57;99966.84;;;22.16;62.59
45872;BME280;32333;55.844;-3.210;2023-06-22T09:59:24;99968.71;;;22.25;60.70
45872;BME280;32333;55.844;-3.210;2023-06-22T10:01:53;99975.71;;;22.68;56.70
45872;BME280;32333;55.844;-3.210;2023-06-22T10:04:20;99974.89;;;20.14;64.13
45872;BME280;32333;55.844;-3.210;2023-06-22T10:06:48;99975.19;;;21.61;60.63
45872;BME280;32333;55.844;-3.210;2023-06-22T10:09:17;99970.05;;;22.24;56.02
45872;BME280;32333;55.844;-3.210;2023-06-22T10:11:44;99965.88;;;22.75;59.40
45872;BME280;32333;55.844;-3.210;2023-06-22T10:14:36;99965.24;;;22.50;60.33
45872;BME280;32333;55.844;-3.210;2023-06-22T10:17:04;99964.63;;;22.81;60.59
45872;BME280;32333;55.844;-3.210;2023-06-22T10:19:32;99967.87;;;21.93;61.56
45872;BME280;32333;55.844;-3.210;2023-06-22T10:21:59;99960.64;;;21.48;60.05
45872;BME280;32333;55.844;-3.210;2023-06-22T10:24:26;99959.75;;;21.35;62.99
45872;BME280;32333;55.844;-3.210;2023-06-22T10:26:54;99956.06;;;21.18;59.40
45872;BME280;32333;55.844;-3.210;2023-06-22T10:29:22;99963.57;;;21.83;58.22
45872;BME280;32333;55.844;-3.210;2023-06-22T10:31:50;99966.99;;;21.82;57.91
45872;BME280;32333;55.844;-3.210;2023-06-22T10:34:18;99963.06;;;21.02;54.78
45872;BME280;32333;55.844;-3.210;2023-06-22T10:36:45;99964.97;;;21.74;59.13
45872;BME280;32333;55.844;-3.210;2023-06-22T10:39:14;99964.31;;;21.61;61.16
45872;BME280;32333;55.844;-3.210;2023-06-22T10:41:42;99966.21;;;22.05;58.27
45872;BME280;32333;55.844;-3.210;2023-06-22T10:44:36;99967.98;;;21.32;61.33
45872;BME280;32333;55.844;-3.210;2023-06-22T10:47:04;99965.31;;;20.56;60.74
45872;BME280;32333;55.844;-3.210;2023-06-22T10:49:34;99966.24;;;21.14;63.01
45872;BME280;32333;55.844;-3.210;2023-06-22T10:52:02;99957.28;;;21.67;61.16
45872;BME280;32333;55.844;-3.210;2023-06-22T10:54:29;99967.23;;;22.40;63.66
45872;BME280;32333;55.844;-3.210;2023-06-22T10:56:58;99962.84;;;22.13;56.19
45872;BME280;32333;55.844;-3.210;2023-06-22T10:59:27;99959.06;;;23.15;53.94
45872;BME280;32333;55.844;-3.210;2023-06-22T11:01:57;99961.62;;;23.69;50.30
45872;BME280;32333;55.844;-3.210;2023-06-22T11:04:26;99958.74;;;23.66;53.80
45872;BME280;32333;55.844;-3.210;2023-06-22T11:06:54;99959.79;;;24.57;49.77
45872;BME280;32333;55.844;-3.210;2023-06-22T11:09:22;99954.90;;;23.26;57.53
45872;BME280;32333;55.844;-3.210;2023-06-22T11:11:51;99956.65;;;21.79;60.92
45872;BME280;32333;55.844;-3.210;2023-06-22T11:14:36;99953.34;;;22.64;58.42
45872;BME280;32333;55.844;-3.210;2023-06-22T11:17:05;99953.06;;;22.47;59.61
45872;BME280;32333;55.844;-3.210;2023-06-22T11:19:35;99961.84;;;21.91;59.13
45872;BME280;32333;55.844;-3.210;2023-06-22T11:22:03;99964.86;;;22.51;59.48
45872;BME280;32333;55.844;-3.210;2023-06-22T11:24:30;99963.68;;;22.36;57.53
45872;BME280;32333;55.844;-3.210;2023-06-22T11:26:58;99956.73;;;23.70;54.88
45872;BME280;32333;55.844;-3.210;2023-06-22T11:29:26;99959.38;;;22.66;53.92
45872;BME280;32333;55.844;-3.210;2023-06-22T11:31:53;99961.44;;;22.93;55.75
45872;BME280;32333;55.844;-3.210;2023-06-22T11:34:21;99957.32;;;21.81;56.33
45872;BME280;32333;55.844;-3.210;2023-06-22T11:36:49;99961.22;;;22.12;57.98
45872;BME280;32333;55.844;-3.210;2023-06-22T11:39:17;99961.03;;;21.73;61.92
45872;BME280;32333;55.844;-3.210;2023-06-22T11:41:45;99957.55;;;22.19;59.92
45872;BME280;32333;55.844;-3.210;2023-06-22T11:44:35;99954.25;;;21.60;61.43
45872;BME280;32333;55.844;-3.210;2023-06-22T11:47:05;99958.52;;;21.39;64.64
45872;BME280;32333;55.844;-3.210;2023-06-22T11:49:34;99959.48;;;21.12;68.98
45872;BME280;32333;55.844;-3.210;2023-06-22T11:52:06;99963.21;;;21.05;65.66
45872;BME280;32333;55.844;-3.210;2023-06-22T11:54:34;99968.71;;;22.58;63.56
45872;BME280;32333;55.844;-3.210;2023-06-22T11:57:02;99966.15;;;23.53;59.87
45872;BME280;32333;55.844;-3.210;2023-06-22T11:59:30;99970.74;;;21.98;63.08
45872;BME280;32333;55.844;-3.210;2023-06-22T12:01:58;99969.79;;;23.18;60.47
45872;BME280;32333;55.844;-3.210;2023-06-22T12:04:26;99968.07;;;21.20;60.78
45872;BME280;32333;55.844;-3.210;2023-06-22T12:06:55;99965.83;;;23.55;57.75
45872;BME280;32333;55.844;-3.210;2023-06-22T12:09:22;99967.96;;;21.59;61.23
45872;BME280;32333;55.844;-3.210;2023-06-22T12:11:49;99964.21;;;23.57;56.42
45872;BME280;32333;55.844;-3.210;2023-06-22T12:14:35;99964.88;;;22.46;57.91
45872;BME280;32333;55.844;-3.210;2023-06-22T12:17:03;99960.61;;;22.96;58.05
45872;BME280;32333;55.844;-3.210;2023-06-22T12:19:31;99957.56;;;23.32;54.95
45872;BME280;32333;55.844;-3.210;2023-06-22T12:21:59;99954.59;;;23.70;53.34
45872;BME280;32333;55.844;-3.210;2023-06-22T12:24:27;99959.81;;;23.19;56.51
45872;BME280;32333;55.844;-3.210;2023-06-22T12:26:56;99956.36;;;23.49;52.82
45872;BME280;32333;55.844;-3.210;2023-06-22T12:29:24;99959.15;;;23.48;55.60
45872;BME280;32333;55.844;-3.210;2023-06-22T12:31:52;99956.56;;;23.66;52.81
45872;BME280;32333;55.844;-3.210;2023-06-22T12:34:20;99957.64;;;22.58;56.57
45872;BME280;32333;55.844;-3.210;2023-06-22T12:36:48;99963.19;;;21.74;58.47
45872;BME280;32333;55.844;-3.210;2023-06-22T12:39:16;99965.38;;;22.19;60.11
45872;BME280;32333;55.844;-3.210;2023-06-22T12:44:37;99967.17;;;21.74;63.64
45872;BME280;32333;55.844;-3.210;2023-06-22T12:47:04;99957.51;;;21.62;59.71
45872;BME280;32333;55.844;-3.210;2023-06-22T12:49:33;99956.62;;;22.81;57.29
45872;BME280;32333;55.844;-3.210;2023-06-22T12:52:00;99951.17;;;22.34;61.07
45872;BME280;32333;55.844;-3.210;2023-06-22T12:54:29;99951.79;;;23.06;57.44
45872;BME280;32333;55.844;-3.210;2023-06-22T12:56:56;99960.45;;;22.17;61.24
45872;BME280;32333;55.844;-3.210;2023-06-22T12:59:24;99961.07;;;21.85;61.39
45872;BME280;32333;55.844;-3.210;2023-06-22T13:01:52;99959.84;;;21.53;64.55
45872;BME280;32333;55.844;-3.210;2023-06-22T13:04:21;99954.97;;;23.28;61.38